createdAt,value
2023-04-20T00:00:36.246Z,100727.72
2023-04-20T00:03:21.654Z,100727.47
2023-04-20T00:05:50.085Z,100721.63
2023-04-20T00:08:17.841Z,100720.72
2023-04-20T00:10:46.084Z,100722.44
2023-04-20T00:13:13.755Z,100713.59
2023-04-20T00:15:41.770Z,100710.91
2023-04-20T00:18:09.494Z,100711.81
2023-04-20T00:20:37.770Z,100707.50
2023-04-20T00:23:05.724Z,100708.28
2023-04-20T00:25:33.690Z,100712.47
2023-04-20T00:28:01.351Z,100715.09
2023-04-20T00:30:29.441Z,100714.81
2023-04-20T00:32:58.446Z,100720.19
2023-04-20T00:35:26.390Z,100714.78
2023-04-20T00:37:54.083Z,100722.88
2023-04-20T00:40:22.052Z,100728.03
2023-04-20T00:42:49.653Z,100717.72
2023-04-20T00:45:17.563Z,100720.25
2023-04-20T00:47:46.280Z,100716.75
2023-04-20T00:50:14.807Z,100721.78
2023-04-20T00:52:42.797Z,100721.78
2023-04-20T00:55:13.890Z,100719.81
2023-04-20T00:57:42.900Z,100718.41
2023-04-20T01:00:11.460Z,100723.09
2023-04-20T01:02:39.195Z,100721.31
2023-04-20T01:05:09.448Z,100716.22
2023-04-20T01:07:37.194Z,100721.41
2023-04-20T01:10:09.484Z,100721.38
2023-04-20T01:12:40.551Z,100721.44
2023-04-20T01:15:09.607Z,100717.03
2023-04-20T01:17:40.500Z,100714.50
2023-04-20T01:20:14.719Z,100714.56
2023-04-20T01:22:50.943Z,100715.56
2023-04-20T01:25:19.228Z,100724.34
2023-04-20T01:27:47.592Z,100714.34
2023-04-20T01:30:17.283Z,100711.91
2023-04-20T01:32:45.463Z,100717.00
2023-04-20T01:35:13.960Z,100715.09
2023-04-20T01:37:42.321Z,100709.13
2023-04-20T01:40:12.257Z,100708.09
2023-04-20T01:42:40.388Z,100708.16
2023-04-20T01:45:09.050Z,100711.72
2023-04-20T01:47:37.087Z,100709.41
2023-04-20T01:50:05.406Z,100709.34
2023-04-20T01:52:33.126Z,100710.03
2023-04-20T01:55:01.090Z,100712.06
2023-04-20T01:57:28.860Z,100712.75
2023-04-20T01:59:57.147Z,100715.38
2023-04-20T02:02:24.850Z,100713.47
2023-04-20T02:04:53.920Z,100709.00
2023-04-20T02:07:21.664Z,100707.50
2023-04-20T02:12:58.814Z,100707.00
2023-04-20T02:15:26.831Z,100719.72
2023-04-20T02:17:54.389Z,100714.66
2023-04-20T02:20:22.384Z,100710.34
2023-04-20T02:22:50.245Z,100716.44
2023-04-20T02:25:18.788Z,100706.16
2023-04-20T02:27:46.455Z,100707.16
2023-04-20T02:30:14.417Z,100715.66
2023-04-20T02:32:43.709Z,100716.09
2023-04-20T02:35:12.378Z,100715.09
2023-04-20T02:37:39.988Z,100715.81
2023-04-20T02:40:08.660Z,100710.59
2023-04-20T02:42:36.458Z,100713.38
2023-04-20T02:45:08.095Z,100710.16
2023-04-20T02:47:36.280Z,100715.47
2023-04-20T02:50:04.932Z,100716.34
2023-04-20T02:52:39.298Z,100718.59
2023-04-20T02:55:08.239Z,100705.75
2023-04-20T02:57:37.313Z,100717.22
2023-04-20T03:00:05.724Z,100718.81
2023-04-20T03:02:48.072Z,100711.72
2023-04-20T03:05:16.186Z,100712.00
2023-04-20T03:07:45.178Z,100716.31
2023-04-20T03:10:14.145Z,100710.22
2023-04-20T03:12:54.154Z,100712.56
2023-04-20T03:15:25.181Z,100706.84
2023-04-20T03:18:06.464Z,100712.84
2023-04-20T03:21:05.725Z,100712.09
2023-04-20T03:23:33.364Z,100719.09
2023-04-20T03:26:02.989Z,100715.88
2023-04-20T03:28:59.046Z,100713.63
2023-04-20T03:31:28.049Z,100726.34
2023-04-20T03:33:57.799Z,100726.22
2023-04-20T03:36:25.727Z,100731.31
2023-04-20T03:38:53.330Z,100731.38
2023-04-20T03:41:22.219Z,100728.94
2023-04-20T03:43:49.796Z,100729.03
2023-04-20T03:46:17.876Z,100732.34
2023-04-20T03:48:45.525Z,100729.81
2023-04-20T03:51:13.928Z,100743.34
2023-04-20T03:53:41.560Z,100741.56
2023-04-20T03:56:12.634Z,100745.28
2023-04-20T03:58:40.560Z,100738.25
2023-04-20T04:01:14.030Z,100739.44
2023-04-20T04:03:47.040Z,100738.00
2023-04-20T04:06:15.250Z,100741.16
2023-04-20T04:08:43.072Z,100756.97
2023-04-20T04:11:10.958Z,100743.53
2023-04-20T04:13:38.533Z,100749.63
2023-04-20T04:16:09.179Z,100740.16
2023-04-20T04:18:38.164Z,100742.94
2023-04-20T04:21:10.972Z,100747.97
2023-04-20T04:23:42.443Z,100744.94
2023-04-20T04:26:33.681Z,100740.28
2023-04-20T04:29:02.046Z,100740.13
2023-04-20T04:31:30.107Z,100741.63
2023-04-20T04:34:03.873Z,100749.81
2023-04-20T04:36:39.012Z,100767.72
2023-04-20T04:39:09.713Z,100763.66
2023-04-20T04:41:39.034Z,100765.56
2023-04-20T04:44:19.852Z,100776.91
2023-04-20T04:46:48.339Z,100769.53
2023-04-20T04:49:16.296Z,100763.72
2023-04-20T04:51:44.389Z,100766.69
2023-04-20T04:54:12.058Z,100770.91
2023-04-20T04:56:39.872Z,100768.44
2023-04-20T04:59:07.449Z,100781.72
2023-04-20T05:01:35.310Z,100783.66
2023-04-20T05:04:03.069Z,100779.28
2023-04-20T05:06:31.378Z,100790.06
2023-04-20T05:08:58.890Z,100782.72
2023-04-20T05:11:26.771Z,100783.13
2023-04-20T05:13:54.773Z,100791.31
2023-04-20T05:16:22.752Z,100795.44
2023-04-20T05:18:51.551Z,100791.47
2023-04-20T05:21:19.406Z,100803.63
2023-04-20T05:23:47.005Z,100796.81
2023-04-20T05:26:14.817Z,100800.19
2023-04-20T05:28:42.787Z,100806.03
2023-04-20T05:31:10.667Z,100806.09
2023-04-20T05:33:39.464Z,100806.59
2023-04-20T05:36:10.207Z,100814.63
2023-04-20T05:38:37.999Z,100810.13
2023-04-20T05:41:06.564Z,100811.63
2023-04-20T05:43:42.037Z,100821.13
2023-04-20T05:46:09.915Z,100813.81
2023-04-20T05:48:37.464Z,100817.06
2023-04-20T05:51:05.543Z,100826.63
2023-04-20T05:53:33.066Z,100827.69
2023-04-20T05:56:01.058Z,100813.19
2023-04-20T05:58:28.994Z,100822.53
2023-04-20T06:00:56.864Z,100818.81
2023-04-20T06:03:24.690Z,100824.38
2023-04-20T06:05:52.754Z,100827.41
2023-04-20T06:08:20.817Z,100818.84
2023-04-20T06:10:48.709Z,100824.78
2023-04-20T06:13:16.235Z,100831.69
2023-04-20T06:15:44.185Z,100828.78
2023-04-20T06:18:11.830Z,100831.56
2023-04-20T06:20:40.434Z,100833.75
2023-04-20T06:23:08.044Z,100832.44
2023-04-20T06:25:39.644Z,100826.34
2023-04-20T06:28:07.508Z,100827.28
2023-04-20T06:30:35.700Z,100821.63
2023-04-20T06:33:03.917Z,100828.91
2023-04-20T06:35:31.747Z,100825.34
2023-04-20T06:38:02.447Z,100824.16
2023-04-20T06:40:30.351Z,100825.47
2023-04-20T06:42:57.956Z,100828.41
2023-04-20T06:45:25.917Z,100828.56
2023-04-20T06:47:53.896Z,100828.28
2023-04-20T06:50:22.194Z,100837.28
2023-04-20T06:52:49.809Z,100832.06
2023-04-20T06:55:20.076Z,100840.19
2023-04-20T06:57:47.793Z,100833.47
2023-04-20T07:00:16.590Z,100835.78
2023-04-20T07:02:51.633Z,100838.06
2023-04-20T07:05:20.345Z,100837.00
2023-04-20T07:07:48.009Z,100835.03
2023-04-20T07:10:16.479Z,100844.09
2023-04-20T07:12:44.426Z,100843.44
2023-04-20T07:15:12.896Z,100833.84
2023-04-20T07:17:40.861Z,100837.19
2023-04-20T07:20:09.428Z,100831.84
2023-04-20T07:22:38.258Z,100834.13
2023-04-20T07:25:08.288Z,100826.41
2023-04-20T07:27:38.146Z,100837.34
2023-04-20T07:30:07.503Z,100845.50
2023-04-20T07:32:36.711Z,100834.56
2023-04-20T07:35:05.000Z,100842.06
2023-04-20T07:37:34.715Z,100836.56
2023-04-20T07:40:06.487Z,100842.25
2023-04-20T07:42:36.934Z,100845.53
2023-04-20T07:45:06.257Z,100846.09
2023-04-20T07:47:37.514Z,100842.25
2023-04-20T07:50:06.778Z,100842.16
2023-04-20T07:52:34.520Z,100859.50
2023-04-20T07:55:02.585Z,100858.75
2023-04-20T07:57:30.529Z,100852.38
2023-04-20T07:59:58.403Z,100855.81
2023-04-20T08:02:26.394Z,100857.94
2023-04-20T08:04:55.397Z,100853.94
2023-04-20T08:07:23.995Z,100860.09
2023-04-20T08:09:51.939Z,100859.72
2023-04-20T08:12:19.482Z,100857.41
2023-04-20T08:14:47.438Z,100857.97
2023-04-20T08:17:14.950Z,100853.22
2023-04-20T08:19:44.970Z,100865.69
2023-04-20T08:22:13.699Z,100856.06
2023-04-20T08:24:41.600Z,100864.03
2023-04-20T08:27:09.573Z,100859.09
2023-04-20T08:29:38.258Z,100852.97
2023-04-20T08:32:09.060Z,100853.44
2023-04-20T08:34:37.189Z,100858.41
2023-04-20T08:37:05.429Z,100859.25
2023-04-20T08:39:33.529Z,100867.75
2023-04-20T08:42:02.165Z,100856.91
2023-04-20T08:44:30.171Z,100855.22
2023-04-20T08:46:57.999Z,100846.75
2023-04-20T08:49:29.960Z,100853.25
2023-04-20T08:51:57.668Z,100861.59
2023-04-20T08:54:25.976Z,100859.19
2023-04-20T08:56:54.205Z,100857.44
2023-04-20T08:59:22.355Z,100857.59
2023-04-20T09:01:49.932Z,100853.34
2023-04-20T09:04:27.209Z,100849.88
2023-04-20T09:06:56.481Z,100846.19
2023-04-20T09:09:27.981Z,100846.75
2023-04-20T09:12:07.347Z,100842.53
2023-04-20T09:14:48.836Z,100843.94
2023-04-20T09:17:18.119Z,100843.06
2023-04-20T09:19:54.298Z,100832.88
2023-04-20T09:22:35.883Z,100847.59
2023-04-20T09:25:17.602Z,100845.00
2023-04-20T09:27:59.744Z,100835.16
2023-04-20T09:30:42.350Z,100842.16
2023-04-20T09:33:12.276Z,100840.66
2023-04-20T09:35:42.088Z,100840.94
2023-04-20T09:38:11.674Z,100846.97
2023-04-20T09:40:39.586Z,100844.06
2023-04-20T09:43:18.560Z,100851.84
2023-04-20T09:45:46.593Z,100852.81
2023-04-20T09:48:19.730Z,100840.88
2023-04-20T09:50:50.582Z,100834.84
2023-04-20T09:53:20.498Z,100854.09
2023-04-20T09:55:50.312Z,100839.97
2023-04-20T09:58:21.850Z,100847.38
2023-04-20T10:00:50.480Z,100844.69
2023-04-20T10:03:19.816Z,100834.53
2023-04-20T10:05:48.401Z,100835.78
2023-04-20T10:08:16.685Z,100840.19
2023-04-20T10:10:51.625Z,100828.63
2023-04-20T10:13:21.772Z,100829.25
2023-04-20T10:15:49.770Z,100828.84
2023-04-20T10:18:19.564Z,100821.22
2023-04-20T10:20:48.119Z,100825.88
2023-04-20T10:23:16.581Z,100831.50
2023-04-20T10:25:55.750Z,100817.22
2023-04-20T10:28:23.489Z,100834.22
2023-04-20T10:30:53.549Z,100820.69
2023-04-20T10:33:22.839Z,100803.34
2023-04-20T10:35:55.053Z,100804.28
2023-04-20T10:38:32.778Z,100807.59
2023-04-20T10:41:11.313Z,100803.59
2023-04-20T10:43:42.276Z,100800.31
2023-04-20T10:46:18.298Z,100798.59
2023-04-20T10:49:02.148Z,100800.84
2023-04-20T10:51:30.964Z,100800.91
2023-04-20T10:54:06.578Z,100804.72
2023-04-20T10:56:39.242Z,100803.09
2023-04-20T10:59:08.618Z,100808.41
2023-04-20T11:01:36.713Z,100802.59
2023-04-20T11:04:05.087Z,100798.91
2023-04-20T11:06:33.336Z,100775.38
2023-04-20T11:09:01.352Z,100794.28
2023-04-20T11:11:29.216Z,100793.66
2023-04-20T11:14:10.608Z,100792.56
2023-04-20T11:16:50.736Z,100792.38
2023-04-20T11:19:29.659Z,100788.13
2023-04-20T11:21:58.334Z,100786.16
2023-04-20T11:24:31.678Z,100789.47
2023-04-20T11:27:00.196Z,100789.38
2023-04-20T11:29:35.836Z,100794.28
2023-04-20T11:32:06.542Z,100783.66
2023-04-20T11:34:36.123Z,100791.75
2023-04-20T11:37:10.102Z,100771.94
2023-04-20T11:39:39.143Z,100775.88
2023-04-20T11:42:07.303Z,100767.38
2023-04-20T11:44:36.788Z,100776.22
2023-04-20T11:47:05.073Z,100773.00
2023-04-20T11:49:32.727Z,100779.97
2023-04-20T11:52:00.759Z,100775.06
2023-04-20T11:54:29.899Z,100773.69
2023-04-20T11:56:59.038Z,100773.56
2023-04-20T11:59:26.723Z,100773.91
2023-04-20T12:01:54.697Z,100763.38
2023-04-20T12:04:22.374Z,100759.41
2023-04-20T12:06:50.501Z,100758.09
2023-04-20T12:09:18.438Z,100763.41
2023-04-20T12:11:46.653Z,100756.50
2023-04-20T12:14:14.190Z,100757.03
2023-04-20T12:16:42.207Z,100756.59
2023-04-20T12:19:09.895Z,100758.91
2023-04-20T12:21:38.035Z,100753.72
2023-04-20T12:24:05.944Z,100754.50
2023-04-20T12:26:38.427Z,100756.84
2023-04-20T12:29:07.607Z,100751.09
2023-04-20T12:31:36.161Z,100756.47
2023-04-20T12:34:04.244Z,100746.63
2023-04-20T12:36:32.592Z,100749.84
2023-04-20T12:39:01.714Z,100741.03
2023-04-20T12:41:29.637Z,100736.81
2023-04-20T12:43:57.266Z,100741.13
2023-04-20T12:46:25.520Z,100730.94
2023-04-20T12:48:53.271Z,100736.91
2023-04-20T12:51:21.188Z,100745.47
2023-04-20T12:53:48.843Z,100740.66
2023-04-20T12:56:16.939Z,100737.72
2023-04-20T12:58:44.593Z,100735.38
2023-04-20T13:01:12.485Z,100740.66
2023-04-20T13:03:40.705Z,100738.72
2023-04-20T13:06:12.297Z,100738.25
2023-04-20T13:08:41.430Z,100730.19
2023-04-20T13:11:12.471Z,100730.50
2023-04-20T13:13:40.065Z,100721.50
2023-04-20T13:16:07.885Z,100717.69
2023-04-20T13:18:35.570Z,100716.22
2023-04-20T13:21:03.533Z,100711.31
2023-04-20T13:23:31.147Z,100713.41
